createdAt,value
2022-11-29T00:01:34.047Z,16.45
2022-11-29T00:04:01.420Z,16.48
2022-11-29T00:06:33.195Z,17.45
2022-11-29T00:09:02.974Z,16.63
2022-11-29T00:11:51.425Z,16.77
2022-11-29T00:14:19.639Z,17.00
2022-11-29T00:16:50.899Z,18.85
2022-11-29T00:19:17.980Z,17.45
2022-11-29T00:21:44.545Z,16.75
2022-11-29T00:24:11.045Z,16.17
2022-11-29T00:26:37.758Z,16.60
2022-11-29T00:29:04.636Z,16.27
2022-11-29T00:31:33.383Z,15.98
2022-11-29T00:34:02.822Z,16.92
2022-11-29T00:36:31.690Z,16.25
2022-11-29T00:38:58.569Z,16.67
2022-11-29T00:41:29.843Z,17.25
2022-11-29T00:43:56.380Z,18.10
2022-11-29T00:46:23.090Z,17.67
2022-11-29T00:48:49.533Z,17.80
2022-11-29T00:51:16.046Z,17.35
2022-11-29T00:53:44.736Z,17.95
2022-11-29T00:56:11.214Z,16.70
2022-11-29T00:58:37.758Z,17.08
2022-11-29T01:01:05.022Z,17.48
2022-11-29T01:03:34.732Z,16.63
2022-11-29T01:06:03.140Z,17.67
2022-11-29T01:08:29.578Z,18.65
2022-11-29T01:11:08.177Z,17.13
2022-11-29T01:13:37.420Z,16.65
2022-11-29T01:16:05.586Z,16.98
2022-11-29T01:18:32.671Z,17.65
2022-11-29T01:21:05.560Z,17.40
2022-11-29T01:23:32.385Z,18.30
2022-11-29T01:26:01.365Z,17.77
2022-11-29T01:28:28.415Z,17.67
2022-11-29T01:30:55.410Z,17.45
2022-11-29T01:33:24.661Z,17.48
2022-11-29T01:35:53.203Z,17.30
2022-11-29T01:38:22.845Z,18.80
2022-11-29T01:41:20.808Z,19.67
2022-11-29T01:43:59.801Z,17.27
2022-11-29T01:46:28.587Z,17.40
2022-11-29T01:49:06.100Z,16.17
2022-11-29T01:51:34.862Z,17.48
2022-11-29T01:54:01.966Z,17.25
2022-11-29T01:56:30.341Z,17.33
2022-11-29T01:58:57.066Z,17.17
2022-11-29T02:01:24.094Z,17.40
2022-11-29T02:03:50.567Z,17.38
2022-11-29T02:06:17.645Z,16.75
2022-11-29T02:08:44.537Z,18.73
2022-11-29T02:11:26.413Z,18.27
2022-11-29T02:13:55.840Z,17.48
2022-11-29T02:16:22.239Z,17.25
2022-11-29T02:19:22.611Z,17.63
2022-11-29T02:21:55.976Z,16.95
2022-11-29T02:24:44.033Z,17.40
2022-11-29T02:27:47.841Z,16.00
2022-11-29T02:30:40.368Z,15.93
2022-11-29T02:33:28.400Z,16.35
2022-11-29T02:36:06.986Z,16.85
2022-11-29T02:38:48.675Z,15.68
2022-11-29T02:41:24.123Z,15.85
2022-11-29T02:44:20.852Z,15.70
2022-11-29T02:47:02.920Z,15.63
2022-11-29T02:49:38.431Z,15.05
2022-11-29T02:52:11.809Z,16.08
2022-11-29T02:54:54.675Z,15.43
2022-11-29T02:57:48.305Z,16.08
2022-11-29T03:00:23.018Z,16.48
2022-11-29T03:02:53.499Z,15.85
2022-11-29T03:05:31.403Z,18.00
2022-11-29T03:08:12.000Z,19.23
2022-11-29T03:11:07.822Z,18.88
2022-11-29T03:14:06.749Z,18.88
2022-11-29T03:16:43.095Z,19.25
2022-11-29T03:19:10.138Z,18.60
2022-11-29T03:21:56.183Z,19.10
2022-11-29T03:24:31.930Z,19.75
2022-11-29T03:27:06.696Z,19.95
2022-11-29T03:29:39.909Z,19.67
2022-11-29T03:32:33.590Z,20.05
2022-11-29T03:35:14.945Z,19.73
2022-11-29T03:38:14.622Z,19.58
2022-11-29T03:40:59.780Z,19.40
2022-11-29T03:43:55.165Z,18.83
2022-11-29T03:46:25.749Z,19.23
2022-11-29T03:48:59.398Z,19.10
2022-11-29T03:51:28.929Z,18.95
2022-11-29T03:54:02.623Z,19.63
2022-11-29T03:56:29.187Z,18.60
2022-11-29T03:59:05.312Z,18.20
2022-11-29T04:01:50.510Z,19.00
2022-11-29T04:04:28.966Z,18.58
2022-11-29T04:07:04.476Z,18.33
2022-11-29T04:09:52.258Z,19.08
2022-11-29T04:12:46.650Z,19.45
2022-11-29T04:15:16.045Z,17.92
2022-11-29T04:17:56.930Z,19.77
2022-11-29T04:20:52.610Z,20.35
2022-11-29T04:23:28.047Z,19.95
2022-11-29T04:26:00.931Z,19.65
2022-11-29T04:28:39.468Z,20.35
2022-11-29T04:31:23.074Z,19.77
2022-11-29T04:34:04.708Z,21.00
2022-11-29T04:36:50.094Z,21.17
2022-11-29T04:39:31.706Z,20.38
2022-11-29T04:42:50.218Z,20.60
2022-11-29T04:45:38.318Z,20.35
2022-11-29T04:48:28.997Z,21.00
2022-11-29T04:51:23.321Z,20.55
2022-11-29T04:56:31.572Z,20.05
2022-11-29T04:59:22.497Z,21.15
2022-11-29T05:02:07.914Z,20.98
2022-11-29T05:04:47.795Z,20.95
2022-11-29T05:07:23.540Z,22.17
2022-11-29T05:10:01.701Z,25.15
2022-11-29T05:12:28.177Z,25.67
2022-11-29T05:15:15.908Z,23.35
2022-11-29T05:17:58.242Z,22.45
2022-11-29T05:20:46.384Z,23.38
2022-11-29T05:23:23.174Z,22.08
2022-11-29T05:26:05.137Z,22.70
2022-11-29T05:29:10.597Z,21.17
2022-11-29T05:32:08.025Z,21.95
2022-11-29T05:34:49.087Z,21.63
2022-11-29T05:37:52.798Z,21.58
2022-11-29T05:41:07.434Z,22.65
2022-11-29T05:44:07.601Z,21.42
2022-11-29T05:46:39.847Z,21.85
2022-11-29T05:49:44.901Z,23.08
2022-11-29T05:52:14.432Z,22.33
2022-11-29T05:54:50.017Z,21.85
2022-11-29T05:57:22.537Z,22.02
2022-11-29T05:59:51.206Z,22.13
2022-11-29T06:02:26.938Z,24.58
2022-11-29T06:05:06.698Z,23.90
2022-11-29T06:07:48.402Z,24.73
2022-11-29T06:10:19.740Z,22.35
2022-11-29T06:13:03.331Z,22.90
2022-11-29T06:15:49.939Z,21.77
2022-11-29T06:18:32.257Z,20.85
2022-11-29T06:21:22.942Z,20.77
2022-11-29T06:24:20.439Z,21.42
2022-11-29T06:26:56.103Z,20.98
2022-11-29T06:29:35.131Z,21.13
2022-11-29T06:32:14.925Z,21.65
2022-11-29T06:34:49.045Z,21.42
2022-11-29T06:37:23.525Z,21.35
2022-11-29T06:39:50.454Z,21.50
2022-11-29T06:42:16.969Z,21.20
2022-11-29T06:44:44.086Z,21.65
2022-11-29T06:47:27.929Z,23.27
2022-11-29T06:50:04.172Z,23.67
2022-11-29T06:52:39.003Z,21.90
2022-11-29T06:55:14.445Z,21.13
2022-11-29T06:57:59.465Z,21.67
2022-11-29T07:00:31.828Z,20.83
2022-11-29T07:03:26.544Z,21.23
2022-11-29T07:05:53.405Z,20.73
2022-11-29T07:08:23.043Z,21.90
2022-11-29T07:10:53.274Z,20.13
2022-11-29T07:13:20.801Z,20.23
2022-11-29T07:16:11.626Z,21.13
2022-11-29T07:18:57.191Z,20.85
2022-11-29T07:21:33.856Z,21.73
2022-11-29T07:24:28.265Z,21.95
2022-11-29T07:27:15.625Z,23.13
2022-11-29T07:29:58.184Z,21.50
2022-11-29T07:33:00.455Z,23.45
2022-11-29T07:36:05.041Z,22.65
2022-11-29T07:38:49.866Z,25.35
2022-11-29T07:41:26.839Z,23.65
2022-11-29T07:44:11.478Z,23.42
2022-11-29T07:46:37.965Z,23.83
2022-11-29T07:49:05.537Z,25.33
2022-11-29T07:51:32.171Z,25.17
2022-11-29T07:53:58.604Z,24.35
2022-11-29T07:56:25.039Z,23.15
2022-11-29T07:58:51.517Z,23.15
2022-11-29T08:01:18.066Z,22.70
2022-11-29T08:03:44.648Z,30.60
2022-11-29T08:06:11.218Z,32.42
2022-11-29T08:08:43.554Z,25.40
2022-11-29T08:11:12.491Z,25.00
2022-11-29T08:13:38.897Z,23.92
2022-11-29T08:16:05.638Z,23.23
2022-11-29T08:18:32.167Z,23.15
2022-11-29T08:20:58.739Z,22.52
2022-11-29T08:23:25.222Z,21.77
2022-11-29T08:25:59.194Z,22.75
2022-11-29T08:28:25.681Z,21.85
2022-11-29T08:31:00.311Z,22.70
2022-11-29T08:33:26.973Z,21.73
2022-11-29T08:35:53.491Z,21.85
2022-11-29T08:38:19.978Z,22.35
2022-11-29T08:40:46.403Z,20.63
2022-11-29T08:43:12.844Z,20.75
2022-11-29T08:45:39.392Z,21.85
2022-11-29T08:48:06.322Z,22.70
2022-11-29T08:50:32.775Z,25.98
2022-11-29T08:53:17.954Z,32.58
2022-11-29T08:55:46.517Z,23.10
2022-11-29T08:58:17.890Z,22.35
2022-11-29T09:00:46.870Z,21.77
2022-11-29T09:03:32.097Z,20.70
2022-11-29T09:06:10.464Z,21.48
2022-11-29T09:08:39.546Z,21.05
2022-11-29T09:11:17.984Z,20.17
2022-11-29T09:13:47.221Z,21.15
2022-11-29T09:16:18.039Z,22.30
2022-11-29T09:18:51.901Z,22.77
2022-11-29T09:21:18.864Z,22.00
2022-11-29T09:23:46.117Z,22.08
2022-11-29T09:26:18.317Z,21.75
2022-11-29T09:28:47.354Z,22.50
2022-11-29T09:31:17.678Z,21.58
2022-11-29T09:33:45.569Z,22.15
2022-11-29T09:36:12.667Z,21.08
2022-11-29T09:38:39.330Z,21.90
2022-11-29T09:41:21.734Z,22.35
2022-11-29T09:44:17.193Z,21.83
2022-11-29T09:46:55.764Z,20.45
2022-11-29T09:49:42.924Z,21.52
2022-11-29T09:52:57.105Z,21.88
2022-11-29T09:55:26.209Z,22.42
2022-11-29T09:57:58.038Z,22.45
2022-11-29T10:00:26.001Z,22.45
2022-11-29T10:03:04.027Z,22.77
2022-11-29T10:05:46.923Z,22.55
2022-11-29T10:08:25.853Z,22.30
2022-11-29T10:10:58.601Z,21.00
2022-11-29T10:13:35.422Z,22.15
2022-11-29T10:16:13.244Z,22.23
2022-11-29T10:18:56.132Z,21.60
2022-11-29T10:21:29.086Z,21.38
2022-11-29T10:24:01.321Z,21.35
2022-11-29T10:26:33.550Z,21.23
2022-11-29T10:31:32.513Z,20.98
2022-11-29T10:34:01.397Z,21.25
2022-11-29T10:36:40.733Z,19.45
2022-11-29T10:39:37.172Z,19.00
2022-11-29T10:42:06.504Z,20.02
2022-11-29T10:44:33.731Z,18.10
2022-11-29T10:47:07.835Z,18.30
2022-11-29T10:49:37.315Z,18.13
2022-11-29T10:52:03.765Z,17.15
2022-11-29T10:54:46.245Z,17.63
2022-11-29T10:57:17.285Z,18.85
2022-11-29T11:00:00.376Z,19.73
2022-11-29T11:02:27.767Z,19.10
2022-11-29T11:04:54.570Z,18.45
2022-11-29T11:07:29.400Z,18.33
2022-11-29T11:09:57.941Z,17.95
2022-11-29T11:12:29.992Z,18.23
2022-11-29T11:15:26.526Z,18.70
2022-11-29T11:18:20.189Z,17.58
2022-11-29T11:20:54.190Z,16.98
2022-11-29T11:23:30.349Z,17.63
2022-11-29T11:26:02.922Z,17.13
2022-11-29T11:28:34.695Z,16.35
2022-11-29T11:31:09.773Z,17.02
2022-11-29T11:33:48.688Z,15.30
2022-11-29T11:36:30.099Z,15.85
2022-11-29T11:39:13.301Z,15.40
2022-11-29T11:42:02.475Z,16.37
2022-11-29T11:44:52.007Z,16.48
2022-11-29T11:47:20.838Z,15.80
2022-11-29T11:49:53.458Z,15.88
2022-11-29T11:52:27.541Z,15.27
2022-11-29T11:54:57.924Z,15.40
2022-11-29T11:57:26.097Z,14.85
2022-11-29T11:59:54.500Z,14.30
2022-11-29T12:02:40.850Z,14.43
2022-11-29T12:05:18.825Z,14.52
2022-11-29T12:08:08.517Z,14.65
2022-11-29T12:10:40.351Z,14.30
2022-11-29T12:13:18.149Z,13.40
2022-11-29T12:15:49.636Z,13.80
2022-11-29T12:18:43.490Z,13.25
2022-11-29T12:21:14.339Z,12.85
2022-11-29T12:24:04.016Z,12.88
2022-11-29T12:26:57.151Z,13.52
2022-11-29T12:29:29.787Z,12.63
2022-11-29T12:32:25.393Z,13.10
2022-11-29T12:35:30.890Z,12.07
2022-11-29T12:38:19.576Z,11.25
2022-11-29T12:40:52.474Z,13.02
2022-11-29T12:43:34.136Z,13.65
2022-11-29T12:46:10.000Z,14.32
2022-11-29T12:48:54.294Z,13.65
2022-11-29T12:51:29.882Z,13.07
2022-11-29T12:54:27.493Z,14.10
2022-11-29T12:57:09.273Z,14.13
2022-11-29T13:00:03.620Z,16.00
2022-11-29T13:05:16.573Z,15.00
2022-11-29T13:07:49.037Z,15.80
2022-11-29T13:10:34.469Z,16.23
2022-11-29T13:13:33.257Z,15.75
2022-11-29T13:16:30.847Z,15.77
2022-11-29T13:19:17.319Z,15.60
2022-11-29T13:21:46.891Z,16.05
2022-11-29T13:24:47.423Z,16.15
2022-11-29T13:27:23.467Z,15.40
2022-11-29T13:29:53.562Z,15.68
2022-11-29T13:32:45.759Z,15.85
2022-11-29T13:35:26.416Z,16.02
2022-11-29T13:37:58.930Z,15.68
2022-11-29T13:40:37.412Z,16.40
2022-11-29T13:43:39.573Z,16.88
2022-11-29T13:46:37.284Z,16.13
2022-11-29T13:49:03.826Z,17.50
2022-11-29T13:51:37.325Z,16.80
2022-11-29T13:54:27.903Z,16.15
2022-11-29T13:57:09.085Z,17.15
2022-11-29T13:59:45.878Z,17.35
2022-11-29T14:02:43.403Z,16.30
2022-11-29T14:05:26.148Z,16.23
2022-11-29T14:08:48.158Z,17.35
2022-11-29T14:11:26.884Z,17.95
2022-11-29T14:14:24.370Z,17.15
2022-11-29T14:16:54.579Z,16.42
2022-11-29T14:19:28.857Z,17.70
2022-11-29T14:22:09.987Z,16.55
2022-11-29T14:24:36.518Z,16.73
2022-11-29T14:27:06.079Z,16.38
2022-11-29T14:29:50.871Z,16.98
2022-11-29T14:32:24.593Z,17.55
2022-11-29T14:37:34.082Z,17.55
2022-11-29T14:40:11.355Z,17.48
2022-11-29T14:42:46.851Z,18.05
2022-11-29T14:45:32.120Z,17.55
2022-11-29T14:47:59.303Z,19.08
2022-11-29T14:50:38.802Z,20.27
2022-11-29T14:53:07.368Z,23.83
2022-11-29T14:55:37.235Z,20.33
2022-11-29T14:58:18.834Z,20.25
2022-11-29T15:00:48.303Z,20.48
2022-11-29T15:03:24.793Z,23.70
2022-11-29T15:05:55.554Z,20.00
2022-11-29T15:08:37.382Z,19.50
2022-11-29T15:11:35.303Z,19.77
2022-11-29T15:14:25.029Z,20.90
2022-11-29T15:16:57.570Z,20.77
2022-11-29T15:19:57.743Z,19.83
2022-11-29T15:22:32.822Z,19.35
2022-11-29T15:25:12.298Z,21.88
2022-11-29T15:27:52.494Z,23.10
2022-11-29T15:30:33.248Z,31.65
2022-11-29T15:33:01.839Z,31.73
2022-11-29T15:35:31.088Z,28.63
2022-11-29T15:37:57.655Z,32.38
2022-11-29T15:40:34.846Z,38.08
2022-11-29T15:43:13.640Z,26.77
2022-11-29T15:45:40.251Z,20.98
2022-11-29T15:48:31.786Z,22.10
2022-11-29T15:51:24.471Z,20.15
2022-11-29T15:54:13.196Z,20.30
2022-11-29T15:57:00.461Z,18.73
2022-11-29T15:59:51.458Z,19.13
2022-11-29T16:02:26.316Z,19.83
2022-11-29T16:04:56.952Z,19.50
2022-11-29T16:07:25.895Z,19.48
2022-11-29T16:10:01.800Z,19.73
2022-11-29T16:12:28.331Z,21.10
2022-11-29T16:14:56.488Z,19.73
2022-11-29T16:17:34.250Z,19.88
2022-11-29T16:20:19.314Z,19.63
2022-11-29T16:22:45.881Z,19.63
2022-11-29T16:25:17.897Z,21.30
2022-11-29T16:27:45.476Z,23.48
2022-11-29T16:30:23.742Z,20.80
2022-11-29T16:32:57.948Z,20.65
2022-11-29T16:35:27.487Z,19.42
2022-11-29T16:37:54.617Z,19.70
2022-11-29T16:40:31.481Z,18.90
2022-11-29T16:43:03.840Z,20.05
2022-11-29T16:45:34.616Z,21.95
2022-11-29T16:48:02.727Z,22.92
2022-11-29T16:50:31.316Z,20.33
2022-11-29T16:53:37.017Z,19.70
2022-11-29T16:56:05.545Z,19.90
2022-11-29T16:58:34.654Z,19.58
2022-11-29T17:01:31.382Z,21.75
2022-11-29T17:04:01.352Z,21.92
2022-11-29T17:06:29.529Z,21.92
2022-11-29T17:08:58.714Z,22.25
2022-11-29T17:11:25.770Z,22.95
2022-11-29T17:13:52.206Z,21.05
2022-11-29T17:16:23.485Z,22.15
2022-11-29T17:18:52.687Z,22.33
2022-11-29T17:21:24.424Z,22.77
2022-11-29T17:23:52.336Z,22.23
2022-11-29T17:26:19.527Z,22.88
2022-11-29T17:28:47.651Z,23.30
2022-11-29T17:31:17.176Z,22.15
2022-11-29T17:33:43.760Z,20.13
2022-11-29T17:36:12.756Z,21.27
2022-11-29T17:38:39.288Z,21.08
2022-11-29T17:41:10.575Z,23.88
2022-11-29T17:43:37.399Z,31.23
2022-11-29T17:46:23.875Z,24.48
2022-11-29T17:48:52.178Z,30.50
2022-11-29T17:51:50.506Z,29.10
2022-11-29T17:54:08.641Z,25.05
2022-11-29T17:56:35.303Z,24.02
2022-11-29T17:59:03.708Z,22.83
2022-11-29T18:01:33.245Z,21.63
2022-11-29T18:04:02.155Z,22.83
2022-11-29T18:06:34.920Z,25.27
2022-11-29T18:09:03.552Z,24.43
2022-11-29T18:11:46.913Z,23.63
2022-11-29T18:14:16.817Z,22.35
2022-11-29T18:16:45.519Z,23.00
2022-11-29T18:19:14.977Z,21.30
2022-11-29T18:21:41.802Z,20.25
2022-11-29T18:24:09.191Z,22.45
2022-11-29T18:26:37.113Z,23.70
2022-11-29T18:29:05.381Z,21.10
2022-11-29T18:31:34.659Z,25.05
2022-11-29T18:34:02.993Z,25.95
2022-11-29T18:36:32.786Z,25.27
2022-11-29T18:39:00.390Z,24.92
2022-11-29T18:41:30.933Z,25.15
2022-11-29T18:44:06.377Z,26.17
2022-11-29T18:46:35.736Z,22.80
2022-11-29T18:49:04.906Z,22.55
2022-11-29T18:51:32.095Z,22.67
2022-11-29T18:53:59.193Z,22.42
2022-11-29T18:56:29.128Z,20.85
2022-11-29T18:59:03.162Z,22.40
2022-11-29T19:01:32.589Z,21.75
2022-11-29T19:04:00.830Z,23.10
2022-11-29T19:06:38.570Z,21.13
2022-11-29T19:09:07.409Z,22.48
2022-11-29T19:11:34.591Z,20.92
2022-11-29T19:14:04.242Z,23.45
2022-11-29T19:16:33.483Z,22.65
2022-11-29T19:19:01.093Z,22.15
2022-11-29T19:21:31.794Z,21.98
2022-11-29T19:24:00.822Z,21.42
2022-11-29T19:26:29.384Z,21.33
2022-11-29T19:28:56.334Z,23.00
2022-11-29T19:31:27.338Z,25.98
2022-11-29T19:33:57.233Z,24.65
2022-11-29T19:36:26.728Z,26.08
2022-11-29T19:38:55.789Z,24.98
2022-11-29T19:41:29.647Z,25.88
2022-11-29T19:44:00.089Z,23.70
2022-11-29T19:46:32.252Z,23.20
2022-11-29T19:49:00.008Z,22.65
2022-11-29T19:51:29.241Z,22.75
2022-11-29T19:54:00.064Z,22.75
2022-11-29T19:56:27.787Z,31.42
2022-11-29T19:58:55.281Z,30.85
2022-11-29T20:01:28.003Z,26.55
2022-11-29T20:03:58.708Z,25.37
2022-11-29T20:06:29.806Z,26.60
2022-11-29T20:08:57.247Z,26.20
2022-11-29T20:11:25.279Z,27.60
2022-11-29T20:13:55.532Z,34.08
2022-11-29T20:16:23.248Z,32.63
2022-11-29T20:18:53.021Z,25.15
2022-11-29T20:21:31.383Z,25.75
2022-11-29T20:24:00.215Z,26.70
2022-11-29T20:26:28.060Z,24.52
2022-11-29T20:28:54.869Z,23.30
2022-11-29T20:31:23.169Z,27.80
2022-11-29T20:33:52.110Z,29.98
2022-11-29T20:36:49.605Z,28.70
2022-11-29T20:39:25.147Z,27.48
2022-11-29T20:42:00.482Z,30.23
2022-11-29T20:44:48.560Z,56.85
2022-11-29T20:47:20.932Z,55.25
2022-11-29T20:49:48.445Z,51.20
2022-11-29T20:52:47.498Z,30.40
2022-11-29T20:55:14.130Z,34.08
2022-11-29T20:57:40.804Z,33.75
2022-11-29T21:00:12.116Z,34.88
2022-11-29T21:02:39.158Z,27.90
2022-11-29T21:05:06.862Z,30.48
2022-11-29T21:07:33.584Z,31.13
2022-11-29T21:10:04.157Z,28.80
2022-11-29T21:12:31.623Z,37.30
2022-11-29T21:14:58.597Z,33.10
2022-11-29T21:17:30.202Z,39.75
2022-11-29T21:20:00.305Z,35.28
2022-11-29T21:22:37.159Z,35.95
2022-11-29T21:25:25.358Z,68.75
2022-11-29T21:27:54.672Z,26.83
2022-11-29T21:30:23.917Z,26.83
2022-11-29T21:32:53.208Z,27.33
2022-11-29T21:35:19.932Z,27.02
2022-11-29T21:37:46.900Z,26.90
2022-11-29T21:40:14.573Z,27.67
2022-11-29T21:42:41.197Z,26.20
2022-11-29T21:45:15.366Z,28.33
2022-11-29T21:47:43.953Z,28.30
2022-11-29T21:50:11.805Z,28.10
2022-11-29T21:52:38.396Z,26.55
2022-11-29T21:55:05.670Z,25.75
2022-11-29T21:57:32.207Z,26.75
2022-11-29T21:59:58.791Z,26.48
2022-11-29T22:02:27.928Z,25.08
2022-11-29T22:04:54.522Z,25.77
2022-11-29T22:07:21.123Z,36.17
2022-11-29T22:09:47.734Z,33.55
2022-11-29T22:12:33.266Z,31.83
2022-11-29T22:15:00.823Z,25.75
2022-11-29T22:17:27.386Z,26.55
2022-11-29T22:19:54.082Z,24.45
2022-11-29T22:22:20.747Z,25.33
2022-11-29T22:24:49.832Z,24.60
2022-11-29T22:27:18.381Z,25.08
2022-11-29T22:29:45.211Z,25.42
2022-11-29T22:32:11.747Z,25.92
2022-11-29T22:34:38.314Z,25.25
2022-11-29T22:37:04.877Z,26.02
2022-11-29T22:39:31.466Z,25.80
2022-11-29T22:42:00.265Z,26.60
2022-11-29T22:44:26.848Z,28.60
2022-11-29T22:46:53.486Z,26.85
2022-11-29T22:49:20.078Z,25.73
2022-11-29T22:51:46.636Z,25.65
2022-11-29T22:54:16.599Z,27.40
2022-11-29T22:56:47.029Z,27.38
2022-11-29T22:59:16.527Z,27.77
2022-11-29T23:01:43.232Z,28.23
2022-11-29T23:04:12.164Z,28.67
2022-11-29T23:06:43.745Z,27.70
2022-11-29T23:09:16.571Z,26.33
2022-11-29T23:11:44.941Z,27.50
2022-11-29T23:14:12.031Z,28.52
2022-11-29T23:16:41.477Z,27.70
2022-11-29T23:19:08.805Z,26.20
2022-11-29T23:21:38.019Z,26.75
2022-11-29T23:24:05.192Z,25.92
2022-11-29T23:26:37.523Z,26.75
2022-11-29T23:29:05.306Z,27.52
2022-11-29T23:31:31.987Z,27.85
2022-11-29T23:33:58.721Z,27.63
2022-11-29T23:36:25.564Z,26.52
2022-11-29T23:38:52.274Z,27.15
2022-11-29T23:41:18.880Z,27.35
2022-11-29T23:43:47.753Z,28.05
2022-11-29T23:46:19.058Z,28.75
2022-11-29T23:48:48.440Z,27.83
2022-11-29T23:51:15.713Z,29.98
2022-11-29T23:53:44.682Z,27.80
2022-11-29T23:56:14.553Z,28.65
2022-11-29T23:58:42.361Z,28.58
